Time;durP1;ratioP1;P1;durP2;ratioP2;P2;SDS_P1;SDS_P2;PMS_P1;PMS_P2;Temp;Humidity;BMP_temperature;BMP_pressure;BME280_temperature;BME280_humidity;BME280_pressure;Samples;Min_cycle;Max_cycle;Signal;HPM_P1;HPM_P2
2022/05/01 00:01:49;;;;;;;10.03;7.20;;;0.70;25.50;;;;;;5026090;28;20053;-26
2022/05/01 00:04:15;;;;;;;11.37;7.80;;;0.70;74.40;;;;;;5016187;28;20054;-27
2022/05/01 00:06:40;;;;;;;26.17;14.90;;;0.50;51.70;;;;;;5016438;28;20053;-27
2022/05/01 00:09:06;;;;;;;22.90;13.80;;;0.50;67.60;;;;;;5015473;28;20133;-27
2022/05/01 00:11:32;;;;;;;26.33;16.30;;;0.70;83.10;;;;;;5016552;28;20045;-27
2022/05/01 00:13:58;;;;;;;20.97;13.77;;;1.00;88.20;;;;;;5019049;28;20478;-27
2022/05/01 00:16:24;;;;;;;33.03;19.10;;;0.50;99.90;;;;;;5014960;28;20057;-27
2022/05/01 00:18:50;;;;;;;35.27;20.67;;;0.60;99.90;;;;;;5013853;28;20050;-27
2022/05/01 00:21:16;;;;;;;327.77;30.67;;;1.40;99.90;;;;;;5016818;28;20056;-26
2022/05/01 00:23:42;;;;;;;22.60;14.03;;;0.40;99.90;;;;;;5014546;28;20049;-27
2022/05/01 00:26:08;;;;;;;19.17;12.63;;;0.80;88.50;;;;;;5017353;28;20050;-27
2022/05/01 00:28:36;;;;;;;22.37;14.50;;;0.70;99.60;;;;;;5014841;28;20124;-26
2022/05/01 00:31:04;;;;;;;25.77;16.00;;;0.30;99.90;;;;;;5014768;28;20045;-26
2022/05/01 00:36:27;;;;;;;24.67;16.27;;;0.50;99.90;;;;;;5001515;28;20049;-27
2022/05/01 00:39:04;;;;;;;27.43;17.37;;;0.20;99.90;;;;;;5014689;28;20077;-27
2022/05/01 00:41:31;;;;;;;21.23;14.40;;;0.00;99.90;;;;;;5015457;28;20136;-27
2022/05/01 00:44:08;;;;;;;17.17;12.40;;;0.10;99.90;;;;;;5014597;28;20046;-27
2022/05/01 00:46:39;;;;;;;19.87;13.07;;;-0.10;99.90;;;;;;5016540;28;20057;-27
2022/05/01 00:49:10;;;;;;;55.90;14.70;;;-0.30;99.90;;;;;;5014482;28;20053;-27
2022/05/01 00:51:41;;;;;;;89.57;15.87;;;-0.20;96.60;;;;;;5014036;28;20056;-26
2022/05/01 00:54:07;;;;;;;21.57;13.47;;;-0.60;90.70;;;;;;5012874;28;20486;-26
2022/05/01 00:56:40;;;;;;;23.23;14.40;;;-0.30;97.10;;;;;;5023811;28;20399;-27
2022/05/01 00:59:07;;;;;;;48.25;17.67;;;-0.40;99.90;;;;;;5019605;28;20049;-26
2022/05/01 01:01:34;;;;;;;38.67;19.50;;;-0.50;99.90;;;;;;5013575;28;20131;-27
2022/05/01 01:04:00;;;;;;;618.97;44.77;;;-0.80;99.90;;;;;;5013959;28;20066;-27
2022/05/01 01:06:26;;;;;;;323.20;32.07;;;-0.40;99.90;;;;;;5014926;28;20512;-26
2022/05/01 01:08:52;;;;;;;401.33;32.27;;;-0.60;99.90;;;;;;5014137;28;20513;-26
2022/05/01 01:11:18;;;;;;;362.97;32.30;;;-0.70;99.90;;;;;;5014133;28;20057;-27
2022/05/01 01:13:47;;;;;;;112.90;20.63;;;-0.10;99.90;;;;;;5013008;28;20052;-27
2022/05/01 01:16:13;;;;;;;136.30;20.93;;;0.30;99.90;;;;;;5016162;28;20124;-27
2022/05/01 01:18:39;;;;;;;142.80;17.80;;;-0.70;99.90;;;;;;5014008;28;20145;-27
2022/05/01 01:21:10;;;;;;;317.23;29.20;;;-0.50;99.90;;;;;;5014022;28;20128;-27
2022/05/01 01:23:39;;;;;;;295.20;32.27;;;-0.70;99.90;;;;;;4995906;28;20375;-27
2022/05/01 01:26:06;;;;;;;337.53;33.70;;;-0.70;99.90;;;;;;5016290;28;20050;-27
2022/05/01 01:28:37;;;;;;;203.17;24.23;;;-0.60;99.90;;;;;;5013930;28;20068;-27
2022/05/01 01:33:51;;;;;;;149.37;22.83;;;-0.70;99.90;;;;;;5013813;28;20132;-28
2022/05/01 01:36:21;;;;;;;221.57;29.83;;;-0.90;99.90;;;;;;5016789;28;20074;-27
2022/05/01 01:38:47;;;;;;;453.43;48.17;;;-0.90;99.90;;;;;;5013818;28;20125;-27
2022/05/01 01:41:18;;;;;;;474.63;49.67;;;-0.80;99.90;;;;;;5013790;28;20077;-26
2022/05/01 01:43:45;;;;;;;376.43;46.73;;;-0.80;99.90;;;;;;5013633;28;20060;-27
2022/05/01 01:46:11;;;;;;;407.70;49.83;;;-0.70;99.90;;;;;;5015327;28;20112;-27
2022/05/01 01:48:37;;;;;;;469.93;46.57;;;-0.50;99.90;;;;;;5015438;28;20046;-26
2022/05/01 01:51:06;;;;;;;599.27;52.13;;;-0.70;99.90;;;;;;5015537;28;20054;-26
2022/05/01 01:53:35;;;;;;;504.83;43.63;;;-0.40;99.90;;;;;;5014103;28;20445;-27
2022/05/01 01:56:01;;;;;;;441.23;40.00;;;-0.80;99.90;;;;;;5014279;28;20045;-27
2022/05/01 01:58:29;;;;;;;413.03;40.70;;;-0.80;99.90;;;;;;5013610;28;20125;-27
2022/05/01 02:00:55;;;;;;;189.60;26.20;;;-0.90;99.90;;;;;;5013591;28;20046;-27
2022/05/01 02:03:22;;;;;;;132.77;24.80;;;-0.90;99.90;;;;;;5013479;28;20053;-27
2022/05/01 02:05:48;;;;;;;145.13;25.87;;;-0.70;99.90;;;;;;5016401;28;20512;-26
2022/05/01 02:08:15;;;;;;;326.07;35.50;;;-1.10;99.90;;;;;;5032040;28;20489;-26
2022/05/01 02:10:41;;;;;;;197.27;23.67;;;-0.30;99.90;;;;;;5033201;28;20060;-28
2022/05/01 02:13:07;;;;;;;177.17;23.30;;;-0.90;99.90;;;;;;5032120;28;20045;-26
2022/05/01 02:15:34;;;;;;;172.83;22.07;;;-1.10;99.90;;;;;;5030721;28;20132;-26
2022/05/01 02:18:01;;;;;;;241.93;26.97;;;-1.00;99.90;;;;;;5015084;28;20455;-27
2022/05/01 02:21:33;;;;;;;376.73;35.10;;;-0.40;99.90;;;;;;5012143;28;20398;-27
2022/05/01 02:23:14;;;;;;;296.33;28.70;;;-0.50;99.90;;;;;;5030835;28;20058;-27
2022/05/01 02:25:40;;;;;;;122.07;25.97;;;-1.00;99.90;;;;;;5033091;28;20045;-27
2022/05/01 02:28:06;;;;;;;199.93;26.83;;;-0.90;99.90;;;;;;5033888;28;20052;-27
2022/05/01 02:30:32;;;;;;;115.73;30.47;;;-1.10;99.90;;;;;;5030568;28;20120;-27
2022/05/01 02:32:58;;;;;;;548.70;52.00;;;-0.90;99.90;;;;;;5014103;28;20168;-27
2022/05/01 02:35:23;;;;;;;358.37;46.90;;;-1.10;1.00;;;;;;5014014;28;20050;-27
2022/05/01 02:37:49;;;;;;;178.63;33.13;;;-0.40;1.00;;;;;;5034815;28;20222;-26
2022/05/01 02:40:15;;;;;;;145.53;29.07;;;-0.40;1.00;;;;;;5035432;28;20045;-26
2022/05/01 02:42:42;;;;;;;126.73;26.80;;;-0.90;1.00;;;;;;5036554;28;20045;-26
2022/05/01 02:45:09;;;;;;;98.50;28.73;;;-1.00;1.00;;;;;;5035582;28;20049;-27
2022/05/01 02:47:35;;;;;;;39.37;23.07;;;-0.90;1.00;;;;;;5019297;28;20481;-26
2022/05/01 02:50:01;;;;;;;59.47;28.33;;;-0.80;1.00;;;;;;5016700;28;20108;-26
2022/05/01 02:52:26;;;;;;;64.10;30.33;;;-0.20;1.00;;;;;;4999391;28;20477;-26
2022/05/01 02:54:52;;;;;;;117.20;30.67;;;-0.40;1.00;;;;;;5015879;28;20043;-26
2022/05/01 02:57:18;;;;;;;92.00;28.73;;;-0.70;1.00;;;;;;5023137;28;20108;-26
2022/05/01 02:59:44;;;;;;;107.17;31.50;;;-0.40;1.00;;;;;;5015533;28;20052;-26
2022/05/01 03:02:10;;;;;;;58.83;30.03;;;0.20;1.00;;;;;;5016453;28;20046;-26
2022/05/01 03:04:36;;;;;;;82.63;32.60;;;0.00;1.00;;;;;;5015909;28;20512;-26
2022/05/01 03:07:04;;;;;;;55.90;29.23;;;-0.50;1.00;;;;;;5018425;28;20060;-27
2022/05/01 03:09:30;;;;;;;47.17;25.77;;;-0.50;1.00;;;;;;5016276;28;20108;-26
2022/05/01 03:11:55;;;;;;;38.30;22.60;;;-0.10;1.00;;;;;;5024315;28;20057;-26
2022/05/01 03:14:21;;;;;;;52.67;27.20;;;-0.60;1.00;;;;;;5034792;28;20045;-26
2022/05/01 03:16:47;;;;;;;69.57;29.73;;;-0.30;1.00;;;;;;5035601;28;20052;-26
2022/05/01 03:22:16;;;;;;;94.07;27.77;;;-0.70;1.00;;;;;;5024240;28;20049;-26
2022/05/01 03:24:42;;;;;;;181.70;29.63;;;-0.90;1.00;;;;;;5017449;28;20033;-26
2022/05/01 03:27:09;;;;;;;183.33;34.60;;;-0.80;1.00;;;;;;5015938;28;20466;-26
2022/05/01 03:29:37;;;;;;;109.47;29.13;;;-0.80;1.00;;;;;;5015925;28;20081;-26
2022/05/01 03:32:07;;;;;;;110.10;27.90;;;0.10;1.00;;;;;;5017792;28;20473;-26
2022/05/01 03:34:33;;;;;;;110.50;28.27;;;-0.90;1.00;;;;;;5020771;28;20049;-26
2022/05/01 03:36:59;;;;;;;136.50;28.30;;;0.50;1.00;;;;;;5015739;28;20501;-26
2022/05/01 03:39:24;;;;;;;219.10;31.57;;;-0.90;1.00;;;;;;5015351;28;20050;-26
2022/05/01 03:41:50;;;;;;;197.43;29.07;;;-0.80;1.00;;;;;;5017850;28;20567;-26
2022/05/01 03:44:16;;;;;;;201.80;28.60;;;-1.00;1.00;;;;;;5015005;28;20065;-26
2022/05/01 03:46:41;;;;;;;157.27;27.13;;;-0.90;1.00;;;;;;5023298;28;20041;-26
2022/05/01 03:49:09;;;;;;;259.63;32.43;;;-1.10;1.00;;;;;;5035618;28;20045;-27
2022/05/01 03:51:35;;;;;;;136.50;26.47;;;-1.10;1.00;;;;;;5034250;28;20045;-27
2022/05/01 03:54:02;;;;;;;237.83;35.00;;;-1.10;1.00;;;;;;5035155;28;20175;-26
2022/05/01 03:56:32;;;;;;;285.30;39.70;;;-1.10;1.00;;;;;;5033610;28;20045;-27
2022/05/01 03:58:58;;;;;;;581.60;59.00;;;-1.10;1.00;;;;;;5020599;28;20169;-26
2022/05/01 04:01:25;;;;;;;333.33;42.53;;;-1.10;1.00;;;;;;5015306;28;20085;-26
2022/05/01 04:03:52;;;;;;;340.50;45.93;;;-1.00;1.00;;;;;;5013952;28;20053;-26
2022/05/01 04:06:18;;;;;;;123.23;32.67;;;-0.20;1.00;;;;;;5016180;28;20111;-26
2022/05/01 04:08:44;;;;;;;242.53;44.70;;;-1.10;1.00;;;;;;5014243;28;20050;-26
2022/05/01 04:11:10;;;;;;;119.20;29.60;;;-0.90;1.00;;;;;;5015121;28;20401;-26
2022/05/01 04:13:37;;;;;;;83.47;28.53;;;-0.10;1.00;;;;;;5015299;28;20045;-26
2022/05/01 04:16:03;;;;;;;148.50;30.53;;;-0.70;1.00;;;;;;5017030;28;20064;-26
2022/05/01 04:18:31;;;;;;;508.90;49.13;;;-1.00;1.00;;;;;;5014975;28;20050;-26
2022/05/01 04:21:00;;;;;;;371.40;43.93;;;-1.00;1.00;;;;;;5016803;28;20041;-27
2022/05/01 04:23:26;;;;;;;372.37;45.00;;;-1.00;1.00;;;;;;5034644;28;20128;-26
2022/05/01 04:25:52;;;;;;;575.87;63.17;;;-0.90;1.00;;;;;;5014906;28;20128;-26
2022/05/01 04:28:18;;;;;;;638.03;65.00;;;-0.90;1.00;;;;;;5016448;28;20221;-26
2022/05/01 04:30:46;;;;;;;590.00;64.83;;;-0.60;1.00;;;;;;5014806;28;20137;-26
2022/05/01 04:33:14;;;;;;;542.63;56.77;;;-0.80;1.00;;;;;;5014649;28;20046;-26
2022/05/01 04:35:43;;;;;;;628.33;61.03;;;-0.60;1.00;;;;;;5014308;28;20041;-27
2022/05/01 04:38:08;;;;;;;566.53;60.83;;;-0.80;1.00;;;;;;5017484;28;20586;-26
2022/05/01 04:40:41;;;;;;;266.43;39.80;;;-0.40;1.00;;;;;;5014329;28;20057;-26
2022/05/01 04:43:13;;;;;;;406.90;47.58;;;-0.70;1.00;;;;;;5015178;28;20125;-27
2022/05/01 04:45:43;;;;;;;375.40;43.80;;;-0.70;1.00;;;;;;5015265;28;20077;-26
2022/05/01 04:48:11;;;;;;;289.33;41.00;;;-0.40;1.00;;;;;;4997960;28;20061;-26
2022/05/01 04:50:37;;;;;;;203.33;36.17;;;-0.70;3.80;;;;;;5013431;28;20077;-27
2022/05/01 04:53:06;;;;;;;115.83;28.53;;;-0.70;11.00;;;;;;5014332;28;20103;-26
2022/05/01 04:55:32;;;;;;;121.07;36.50;;;-0.30;62.20;;;;;;5013491;28;20048;-26
2022/05/01 04:57:58;;;;;;;196.57;43.00;;;0.50;99.90;;;;;;5029574;28;20051;-26
2022/05/01 05:00:25;;;;;;;148.93;32.73;;;-0.30;99.90;;;;;;5014258;28;20050;-27
2022/05/01 05:02:52;;;;;;;324.67;42.57;;;-0.30;99.90;;;;;;5014512;28;20100;-26
2022/05/01 05:05:19;;;;;;;237.70;38.57;;;-0.30;99.90;;;;;;5014240;28;20053;-27
2022/05/01 05:07:46;;;;;;;358.17;52.90;;;0.20;99.90;;;;;;5012847;28;20053;-26
2022/05/01 05:10:13;;;;;;;252.60;49.40;;;0.50;99.90;;;;;;5014101;28;20137;-27
2022/05/01 05:12:42;;;;;;;170.17;41.47;;;0.00;99.90;;;;;;5013944;28;20046;-26
2022/05/01 05:15:10;;;;;;;146.13;41.17;;;1.00;99.90;;;;;;5014349;28;20038;-27
2022/05/01 05:17:36;;;;;;;531.47;66.73;;;0.10;99.90;;;;;;5016196;28;20054;-27
2022/05/01 05:20:04;;;;;;;587.10;71.73;;;0.60;99.90;;;;;;5019322;28;20100;-27
2022/05/01 05:22:31;;;;;;;445.10;62.83;;;0.50;99.90;;;;;;5013819;28;20053;-27
2022/05/01 05:24:57;;;;;;;396.60;56.30;;;0.60;99.90;;;;;;5015774;28;20046;-27
2022/05/01 05:27:25;;;;;;;285.47;48.43;;;1.00;99.90;;;;;;5012572;28;20041;-26
2022/05/01 05:30:01;;;;;;;203.87;42.00;;;0.80;99.90;;;;;;5012877;28;20054;-27
2022/05/01 05:32:27;;;;;;;110.67;33.63;;;1.10;99.90;;;;;;5015932;28;20409;-26
2022/05/01 05:34:53;;;;;;;149.07;35.97;;;0.90;99.90;;;;;;5013782;28;20473;-26
2022/05/01 05:37:19;;;;;;;51.10;29.27;;;1.10;99.90;;;;;;5020884;28;20132;-26
2022/05/01 05:39:46;;;;;;;40.10;27.10;;;1.30;99.90;;;;;;5015938;28;20140;-26
2022/05/01 05:42:12;;;;;;;45.87;29.50;;;1.10;99.90;;;;;;5033391;28;20050;-26
2022/05/01 05:44:38;;;;;;;37.73;26.83;;;1.40;99.90;;;;;;5032158;28;20107;-26
2022/05/01 05:47:04;;;;;;;36.97;26.07;;;1.40;99.90;;;;;;5020583;28;20401;-26
2022/05/01 05:49:31;;;;;;;43.13;29.50;;;1.60;99.90;;;;;;5014123;28;20100;-27
2022/05/01 05:51:58;;;;;;;57.90;35.90;;;1.80;99.90;;;;;;5023639;28;20053;-26
2022/05/01 05:54:23;;;;;;;53.03;33.07;;;2.90;99.90;;;;;;5032961;28;20499;-26
2022/05/01 05:56:49;;;;;;;44.73;30.77;;;2.20;99.90;;;;;;5033383;28;20049;-26
2022/05/01 05:59:15;;;;;;;34.17;26.25;;;2.90;99.90;;;;;;5032400;28;20374;-27
2022/05/01 06:01:41;;;;;;;39.40;29.17;;;3.10;99.90;;;;;;5021943;28;20498;-26
2022/05/01 06:04:07;;;;;;;41.72;29.92;;;3.20;99.90;;;;;;5013162;28;20050;-26
2022/05/01 06:06:34;;;;;;;46.80;29.17;;;3.30;99.90;;;;;;5013845;28;20049;-26
2022/05/01 06:09:00;;;;;;;45.70;28.75;;;3.70;99.90;;;;;;4996300;28;20080;-26
2022/05/01 06:11:26;;;;;;;32.65;24.38;;;3.70;99.90;;;;;;5019481;28;20077;-26
2022/05/01 06:13:53;;;;;;;29.60;22.75;;;3.90;99.90;;;;;;5016121;28;20038;-26
2022/05/01 06:16:19;;;;;;;26.10;21.15;;;4.10;99.90;;;;;;5017576;28;20054;-27
2022/05/01 06:18:45;;;;;;;28.70;22.27;;;4.50;99.90;;;;;;5017319;28;20481;-27
2022/05/01 06:21:11;;;;;;;29.90;22.10;;;4.40;99.90;;;;;;5018179;28;20052;-27
2022/05/01 06:23:37;;;;;;;26.70;21.63;;;4.50;99.90;;;;;;5016177;28;20045;-26
2022/05/01 06:26:05;;;;;;;29.15;19.65;;;4.60;99.90;;;;;;5000626;28;20060;-27
2022/05/01 06:28:31;;;;;;;26.38;19.10;;;5.00;99.90;;;;;;5017105;28;20124;-27
2022/05/01 06:31:00;;;;;;;26.80;19.42;;;5.20;99.90;;;;;;5018041;28;20496;-27
2022/05/01 06:33:28;;;;;;;22.40;18.52;;;5.20;99.90;;;;;;5016931;28;20058;-27
2022/05/01 06:35:55;;;;;;;23.98;18.00;;;5.40;99.90;;;;;;5019605;28;20507;-27
2022/05/01 06:38:21;;;;;;;23.08;18.05;;;5.70;99.90;;;;;;5035514;28;20045;-27
2022/05/01 06:40:48;;;;;;;20.25;15.55;;;5.90;99.90;;;;;;5035541;28;20049;-26
2022/05/01 06:43:15;;;;;;;16.77;13.95;;;6.30;99.90;;;;;;5037111;28;20037;-27
2022/05/01 06:45:41;;;;;;;16.20;13.60;;;6.30;99.90;;;;;;5035226;28;20060;-26
2022/05/01 06:48:08;;;;;;;12.98;11.63;;;6.60;99.90;;;;;;5036459;28;20049;-27
2022/05/01 06:50:35;;;;;;;16.63;11.52;;;6.80;99.90;;;;;;5020210;28;20511;-27
2022/05/01 06:53:00;;;;;;;13.10;11.73;;;7.00;99.90;;;;;;5015103;28;20531;-27
2022/05/01 06:55:26;;;;;;;15.77;10.25;;;7.20;99.90;;;;;;5016028;28;20128;-27
2022/05/01 06:57:53;;;;;;;10.93;9.82;;;7.40;99.90;;;;;;5015235;28;20050;-28
2022/05/01 07:00:19;;;;;;;11.20;10.00;;;7.60;99.90;;;;;;5016476;28;20054;-27
2022/05/01 07:02:47;;;;;;;12.05;10.00;;;7.80;99.90;;;;;;5015180;28;20508;-27
2022/05/01 07:05:13;;;;;;;15.65;9.90;;;8.10;99.90;;;;;;5023928;28;20081;-27
2022/05/01 07:07:39;;;;;;;11.13;8.48;;;8.40;99.90;;;;;;5035364;28;20488;-27
2022/05/01 07:10:06;;;;;;;13.50;9.43;;;8.50;99.90;;;;;;5034911;28;20038;-27
2022/05/01 07:12:33;;;;;;;8.95;8.05;;;8.70;99.90;;;;;;5019760;28;20057;-29
2022/05/01 07:14:59;;;;;;;11.10;8.05;;;8.80;99.90;;;;;;4998908;28;20421;-27
2022/05/01 07:17:25;;;;;;;9.63;8.18;;;9.00;99.90;;;;;;5014917;28;20042;-27
2022/05/01 07:19:50;;;;;;;11.80;5.95;;;9.10;1.00;;;;;;5016084;28;20046;-28
2022/05/01 07:22:17;;;;;;;10.50;7.30;;;9.20;99.90;;;;;;5015859;28;20073;-27
2022/05/01 07:24:43;;;;;;;9.05;6.75;;;9.40;99.90;;;;;;5014872;28;20140;-27
2022/05/01 07:27:09;;;;;;;8.52;6.60;;;9.60;99.90;;;;;;5016001;28;20096;-27
2022/05/01 07:29:35;;;;;;;11.60;7.97;;;9.80;99.90;;;;;;5015969;28;20054;-28
2022/05/01 07:32:01;;;;;;;7.60;5.80;;;10.10;1.00;;;;;;5026297;28;20057;-27
2022/05/01 07:34:26;;;;;;;6.47;5.43;;;10.30;1.00;;;;;;5035572;28;20041;-28
2022/05/01 07:36:52;;;;;;;8.73;5.72;;;10.60;99.90;;;;;;5035604;28;20103;-28
2022/05/01 07:39:18;;;;;;;9.45;5.90;;;10.60;99.90;;;;;;5036624;28;20099;-27
2022/05/01 07:41:44;;;;;;;9.48;6.10;;;10.60;99.90;;;;;;5025921;28;20050;-28
2022/05/01 07:44:11;;;;;;;6.32;4.72;;;10.50;99.90;;;;;;5015382;28;20045;-27
2022/05/01 07:46:38;;;;;;;5.78;4.50;;;10.50;99.90;;;;;;5015484;28;20054;-27
2022/05/01 07:49:08;;;;;;;9.35;6.22;;;10.50;99.90;;;;;;5015607;28;20061;-28
2022/05/01 07:51:34;;;;;;;8.50;5.95;;;10.70;99.90;;;;;;5019633;28;20049;-28
2022/05/01 07:54:01;;;;;;;8.27;5.38;;;11.00;99.90;;;;;;5024345;28;20056;-28
2022/05/01 07:56:28;;;;;;;8.77;5.10;;;11.40;99.90;;;;;;5035241;28;20107;-26
2022/05/01 07:58:54;;;;;;;9.13;5.82;;;11.80;18.00;;;;;;5035467;28;20045;-26
2022/05/01 08:01:21;;;;;;;9.52;6.72;;;11.60;1.00;;;;;;5030227;28;20097;-27
2022/05/01 08:06:31;;;;;;;5.95;4.18;;;11.50;1.00;;;;;;5015273;28;20417;-26
2022/05/01 08:08:57;;;;;;;4.90;4.22;;;11.80;1.00;;;;;;5016022;28;20049;-27
2022/05/01 08:11:23;;;;;;;4.68;4.15;;;12.10;1.00;;;;;;5017569;28;20046;-27
2022/05/01 08:13:49;;;;;;;6.20;4.55;;;12.20;1.00;;;;;;5015041;28;20072;-26
2022/05/01 08:16:17;;;;;;;9.15;4.53;;;12.20;1.00;;;;;;5013923;28;20050;-26
2022/05/01 08:21:31;;;;;;;7.20;4.20;;;12.40;1.00;;;;;;5017338;28;20116;-26
2022/05/01 08:23:57;;;;;;;7.60;4.30;;;12.30;1.00;;;;;;5018843;28;20113;-27
2022/05/01 08:26:23;;;;;;;6.32;4.70;;;12.40;1.00;;;;;;5014464;28;20056;-26
2022/05/01 08:28:54;;;;;;;5.63;3.72;;;12.50;1.00;;;;;;5016013;28;20054;-27
2022/05/01 08:31:21;;;;;;;7.55;4.13;;;12.70;99.90;;;;;;5015405;28;20053;-27
2022/05/01 08:33:47;;;;;;;4.65;3.75;;;12.70;1.00;;;;;;5015347;28;20046;-27
2022/05/01 08:36:13;;;;;;;6.90;3.95;;;12.90;99.90;;;;;;5023282;28;20044;-27
2022/05/01 08:38:39;;;;;;;7.30;4.47;;;12.80;99.90;;;;;;5023517;28;20057;-27
2022/05/01 08:41:07;;;;;;;6.20;4.40;;;12.80;99.90;;;;;;5024861;28;20381;-26
2022/05/01 08:43:34;;;;;;;7.93;4.78;;;12.70;99.90;;;;;;5034891;28;20124;-26
2022/05/01 08:46:53;;;;;;;6.55;3.90;;;12.70;99.90;;;;;;5034285;28;20563;-26
2022/05/01 08:49:21;;;;;;;6.65;4.88;;;12.70;99.90;;;;;;5028337;28;20057;-27
2022/05/01 08:51:48;;;;;;;7.18;4.38;;;12.90;99.90;;;;;;5020107;28;20500;-26
2022/05/01 08:54:16;;;;;;;7.65;5.95;;;13.30;99.90;;;;;;5012560;28;20374;-26
2022/05/01 08:56:43;;;;;;;6.13;4.57;;;13.70;99.90;;;;;;5013238;28;20061;-26
2022/05/01 08:59:16;;;;;;;5.85;3.88;;;14.20;99.90;;;;;;5014360;28;20057;-27
2022/05/01 09:01:45;;;;;;;5.57;4.13;;;14.60;15.90;;;;;;5024979;28;20060;-27
2022/05/01 09:04:13;;;;;;;5.28;4.78;;;14.80;99.90;;;;;;5034184;28;20472;-27
2022/05/01 09:06:44;;;;;;;5.13;4.40;;;15.10;99.90;;;;;;5034059;28;20049;-26
2022/05/01 09:09:19;;;;;;;7.18;4.32;;;14.90;99.90;;;;;;5034265;28;20053;-27
2022/05/01 09:14:29;;;;;;;6.10;4.15;;;14.20;99.90;;;;;;5014103;28;20076;-27
2022/05/01 09:17:23;;;;;;;6.35;4.78;;;14.10;99.90;;;;;;5013533;28;20100;-27
2022/05/01 09:20:09;;;;;;;6.28;4.70;;;14.10;99.70;;;;;;5014114;28;20085;-27
2022/05/01 09:22:52;;;;;;;6.88;4.85;;;14.20;99.90;;;;;;5014762;28;20045;-26
2022/05/01 09:25:22;;;;;;;8.05;4.63;;;14.30;99.90;;;;;;5012330;28;20053;-27
2022/05/01 09:27:49;;;;;;;5.57;4.70;;;14.40;97.20;;;;;;5015064;28;20072;-27
2022/05/01 09:30:23;;;;;;;7.00;3.92;;;14.50;99.90;;;;;;5013366;28;20049;-27
2022/05/01 09:32:49;;;;;;;7.35;4.78;;;14.70;99.90;;;;;;5013935;28;20478;-26
2022/05/01 09:35:36;;;;;;;6.45;3.97;;;14.50;99.90;;;;;;5013794;28;20038;-26
2022/05/01 09:38:17;;;;;;;4.38;3.97;;;14.50;31.50;;;;;;5024301;28;20072;-26
2022/05/01 09:40:45;;;;;;;7.32;4.80;;;14.50;1.00;;;;;;5034075;28;20132;-26
2022/05/01 09:43:43;;;;;;;5.15;3.75;;;14.20;28.60;;;;;;5033513;28;20060;-26
2022/05/01 09:46:25;;;;;;;6.07;4.15;;;14.20;53.50;;;;;;5031210;28;20107;-26
2022/05/01 09:49:03;;;;;;;5.70;3.97;;;14.20;83.30;;;;;;5037637;28;20060;-27
2022/05/01 09:51:33;;;;;;;8.07;4.88;;;13.90;56.80;;;;;;5037812;28;20045;-26
2022/05/01 09:54:01;;;;;;;4.93;4.00;;;13.70;91.20;;;;;;5037773;28;20053;-26
2022/05/01 09:56:27;;;;;;;8.30;4.15;;;14.00;53.30;;;;;;5032982;28;20121;-28
2022/05/01 09:59:03;;;;;;;8.57;4.47;;;14.40;72.70;;;;;;5037436;28;20473;-26
2022/05/01 10:01:30;;;;;;;6.30;4.38;;;15.50;1.00;;;;;;5033917;28;20055;-27
2022/05/01 10:04:00;;;;;;;5.15;3.67;;;16.30;1.00;;;;;;5036510;28;20132;-27
2022/05/01 10:06:29;;;;;;;6.30;4.80;;;16.60;1.00;;;;;;5020925;28;20057;-26
2022/05/01 10:08:56;;;;;;;6.38;3.67;;;16.70;1.00;;;;;;5036923;28;20050;-27
2022/05/01 10:11:24;;;;;;;7.05;4.60;;;16.30;1.00;;;;;;5033356;28;20128;-26
2022/05/01 10:13:50;;;;;;;6.18;4.90;;;15.90;1.00;;;;;;5030956;28;20121;-26
2022/05/01 10:16:16;;;;;;;5.22;3.97;;;15.20;1.00;;;;;;5027371;28;20042;-27
2022/05/01 10:18:44;;;;;;;6.03;4.43;;;15.00;15.20;;;;;;5017318;28;20049;-26
2022/05/01 10:21:11;;;;;;;7.45;6.03;;;14.80;6.90;;;;;;5022627;28;20048;-27
2022/05/01 10:23:39;;;;;;;8.18;4.70;;;15.00;1.00;;;;;;5036987;28;20037;-27
2022/05/01 10:26:13;;;;;;;7.13;4.28;;;14.80;4.00;;;;;;5035781;28;20049;-27
2022/05/01 10:28:50;;;;;;;5.68;3.90;;;15.10;1.00;;;;;;5037001;28;20045;-27
2022/05/01 10:34:47;;;;;;;6.28;4.25;;;14.80;1.00;;;;;;5016982;28;20045;-26
2022/05/01 10:37:30;;;;;;;5.85;4.25;;;14.20;1.00;;;;;;5016946;28;20057;-27
2022/05/01 10:39:58;;;;;;;5.30;4.13;;;13.90;1.00;;;;;;5016952;28;20049;-26
2022/05/01 10:42:35;;;;;;;6.05;4.15;;;13.80;3.20;;;;;;5015639;28;20057;-26
2022/05/01 10:45:01;;;;;;;5.28;3.58;;;14.20;6.60;;;;;;5015553;28;20125;-27
2022/05/01 10:47:38;;;;;;;5.40;3.70;;;14.50;7.40;;;;;;5016829;28;20180;-27
2022/05/01 10:50:11;;;;;;;6.95;3.80;;;14.50;26.00;;;;;;5016060;28;20062;-27
2022/05/01 10:53:06;;;;;;;5.72;3.97;;;14.30;4.40;;;;;;5015473;28;20060;-26
2022/05/01 10:55:52;;;;;;;8.15;4.00;;;14.50;1.00;;;;;;5016204;28;20074;-26
2022/05/01 10:58:19;;;;;;;6.07;4.10;;;14.70;1.00;;;;;;5016795;28;20081;-27
2022/05/01 11:00:46;;;;;;;6.20;3.53;;;15.00;1.00;;;;;;5016508;28;20512;-26
2022/05/01 11:03:26;;;;;;;4.82;4.07;;;15.30;1.00;;;;;;5017011;28;20092;-27
2022/05/01 11:06:02;;;;;;;6.03;3.38;;;15.90;1.00;;;;;;5016349;28;20120;-27
2022/05/01 11:08:31;;;;;;;7.72;3.78;;;16.00;1.00;;;;;;5015234;28;20050;-27
2022/05/01 11:10:59;;;;;;;4.50;3.55;;;16.10;1.00;;;;;;5016348;28;20053;-27
2022/05/01 11:13:33;;;;;;;6.35;4.00;;;16.20;1.00;;;;;;5016984;28;20096;-26
2022/05/01 11:16:00;;;;;;;7.22;3.50;;;16.10;1.00;;;;;;5031674;28;20050;-26
2022/05/01 11:18:33;;;;;;;5.22;3.88;;;15.80;1.00;;;;;;5016205;28;20050;-27
2022/05/01 11:21:24;;;;;;;5.88;3.80;;;16.00;1.00;;;;;;5016528;28;20100;-26
2022/05/01 11:24:00;;;;;;;4.40;2.70;;;16.40;1.00;;;;;;5016048;28;20559;-27
2022/05/01 11:26:27;;;;;;;4.72;3.10;;;16.30;1.00;;;;;;5016896;28;20053;-26
2022/05/01 11:29:22;;;;;;;5.63;3.25;;;16.60;1.00;;;;;;5015450;28;20064;-27
2022/05/01 11:31:48;;;;;;;5.30;3.28;;;16.40;1.00;;;;;;5015554;28;20390;-27
2022/05/01 11:34:17;;;;;;;5.72;3.20;;;16.60;1.00;;;;;;5016014;28;20048;-26
2022/05/01 11:36:58;;;;;;;4.78;3.33;;;17.00;99.90;;;;;;5015833;28;20049;-27
2022/05/01 11:39:56;;;;;;;5.07;3.03;;;17.20;99.90;;;;;;5016385;28;20056;-27
2022/05/01 11:42:25;;;;;;;4.63;3.25;;;17.10;99.90;;;;;;5014486;28;20517;-27
2022/05/01 11:44:56;;;;;;;4.38;3.25;;;16.60;99.90;;;;;;5014213;28;20509;-27
2022/05/01 11:47:23;;;;;;;5.07;3.88;;;16.60;99.90;;;;;;5015597;28;20053;-27
2022/05/01 11:49:53;;;;;;;4.90;3.20;;;16.60;1.00;;;;;;5015658;28;20116;-26
2022/05/01 11:52:22;;;;;;;6.57;3.17;;;16.90;99.90;;;;;;5015734;28;20046;-27
2022/05/01 11:54:57;;;;;;;4.57;2.88;;;16.90;99.90;;;;;;5014503;28;20433;-26
2022/05/01 12:03:07;;;;;;;4.90;2.72;;;16.70;99.90;;;;;;5016180;28;20151;-26
2022/05/01 12:05:41;;;;;;;4.22;3.20;;;17.30;99.90;;;;;;5014078;28;20066;-27
2022/05/01 12:08:07;;;;;;;4.65;3.58;;;16.70;99.90;;;;;;5014501;28;20053;-27
2022/05/01 12:10:32;;;;;;;5.25;3.22;;;16.60;99.90;;;;;;5013958;28;20046;-27
2022/05/01 12:12:58;;;;;;;7.05;3.40;;;16.80;99.90;;;;;;5015242;28;20235;-27
2022/05/01 12:15:25;;;;;;;3.97;3.05;;;17.20;99.90;;;;;;5015021;28;20084;-28
2022/05/01 12:17:51;;;;;;;4.00;3.03;;;17.10;99.90;;;;;;5014090;28;20490;-26
2022/05/01 12:20:16;;;;;;;3.30;3.00;;;17.20;99.90;;;;;;5014074;28;20085;-26
2022/05/01 12:22:43;;;;;;;3.10;2.63;;;17.60;99.90;;;;;;4997757;28;20157;-26
2022/05/01 12:25:12;;;;;;;4.22;2.45;;;17.90;99.90;;;;;;5014952;28;20054;-26
2022/05/01 12:27:42;;;;;;;4.00;2.85;;;18.50;99.90;;;;;;5015510;28;20054;-26
2022/05/01 12:30:09;;;;;;;2.88;2.55;;;18.80;99.90;;;;;;5014949;28;20104;-27
2022/05/01 12:32:37;;;;;;;5.88;3.30;;;18.60;99.90;;;;;;5013797;28;20555;-26
2022/05/01 12:35:04;;;;;;;4.93;3.05;;;18.40;99.90;;;;;;5014745;28;20069;-26
2022/05/01 12:37:34;;;;;;;7.05;2.72;;;18.00;99.90;;;;;;5014698;28;20045;-26
2022/05/01 12:40:12;;;;;;;4.55;2.55;;;18.10;99.90;;;;;;5029984;28;20056;-26
2022/05/01 12:45:39;;;;;;;3.35;2.30;;;18.40;99.90;;;;;;5014742;28;20053;-26
2022/05/01 12:48:09;;;;;;;3.08;2.72;;;18.80;99.90;;;;;;5014649;28;20092;-26
2022/05/01 12:50:38;;;;;;;4.03;2.35;;;19.00;99.90;;;;;;5014444;28;20061;-27
2022/05/01 12:53:22;;;;;;;4.07;2.60;;;19.30;99.90;;;;;;5014180;28;20464;-28
2022/05/01 12:55:48;;;;;;;3.53;2.65;;;19.40;99.90;;;;;;5014391;28;20049;-26
2022/05/01 12:58:14;;;;;;;3.58;2.67;;;19.20;99.90;;;;;;5014329;28;20042;-26
2022/05/01 13:00:45;;;;;;;4.28;2.60;;;18.70;99.90;;;;;;5013119;28;20046;-27
2022/05/01 13:03:33;;;;;;;3.63;2.00;;;18.60;99.90;;;;;;5014238;28;20050;-26
2022/05/01 13:06:05;;;;;;;5.13;2.20;;;18.20;99.90;;;;;;5029639;28;20087;-27
2022/05/01 13:08:41;;;;;;;4.40;2.38;;;18.10;99.90;;;;;;5013236;28;20115;-26
2022/05/01 13:11:15;;;;;;;2.75;2.13;;;17.40;99.90;;;;;;5014203;28;20085;-26
2022/05/01 13:13:56;;;;;;;3.25;2.38;;;16.80;99.90;;;;;;5014617;28;20088;-26
2022/05/01 13:16:24;;;;;;;3.85;2.40;;;16.50;99.90;;;;;;5014707;28;20540;-26